Terminal Aerodrome Forecast
Issued by NWS

Home | Current Version | Previous Version | Text Only | Print | Product List | Glossary On
Versions: 1 2 3 4 5 6 7 8 9 10 11 12 13 14 15 16 17
182
FTUS44 KBMX 222340
TAFTCL
TAF
KTCL 222340Z 2300/2324 05003KT 5SM -RA VCTS SCT010 BKN035CB OVC100
     FM230300 VRB03KT 5SM -SHRA BKN012 OVC100
     FM230800 VRB03KT 4SM -SHRA BKN007 OVC040
     FM231400 25005KT 6SM -SHRA VCSH OVC010
     FM231700 32005KT 6SM -SHRA VCTS OVC030CB=

USA.gov is the U.S. government's official web portal to all federal, state and local government web resources and services.